sensor_id;sensor_type;location;lat;lon;timestamp;P1;durP1;ratioP1;P2;durP2;ratioP2
28483;SDS011;15704;48.834;8.736;2023-06-10T00:00:29;9.40;;;5.00;;
28483;SDS011;15704;48.834;8.736;2023-06-10T00:02:57;7.88;;;5.20;;
28483;SDS011;15704;48.834;8.736;2023-06-10T00:05:25;10.90;;;5.00;;
28483;SDS011;15704;48.834;8.736;2023-06-10T00:07:57;7.40;;;5.20;;
28483;SDS011;15704;48.834;8.736;2023-06-10T00:10:24;7.32;;;5.05;;
28483;SDS011;15704;48.834;8.736;2023-06-10T00:12:51;7.25;;;5.32;;
28483;SDS011;15704;48.834;8.736;2023-06-10T00:15:17;7.82;;;5.00;;
28483;SDS011;15704;48.834;8.736;2023-06-10T00:17:44;9.48;;;5.10;;
28483;SDS011;15704;48.834;8.736;2023-06-10T00:20:11;10.25;;;5.32;;
28483;SDS011;15704;48.834;8.736;2023-06-10T00:22:39;12.88;;;5.43;;
28483;SDS011;15704;48.834;8.736;2023-06-10T00:25:08;8.98;;;5.70;;
28483;SDS011;15704;48.834;8.736;2023-06-10T00:27:37;14.57;;;5.60;;
28483;SDS011;15704;48.834;8.736;2023-06-10T00:30:04;12.80;;;5.68;;
28483;SDS011;15704;48.834;8.736;2023-06-10T00:32:33;8.27;;;5.10;;
28483;SDS011;15704;48.834;8.736;2023-06-10T00:35:01;7.10;;;5.07;;
28483;SDS011;15704;48.834;8.736;2023-06-10T00:37:28;7.45;;;5.00;;
28483;SDS011;15704;48.834;8.736;2023-06-10T00:39:55;9.68;;;5.25;;
28483;SDS011;15704;48.834;8.736;2023-06-10T00:42:22;6.95;;;5.00;;
28483;SDS011;15704;48.834;8.736;2023-06-10T00:44:50;9.18;;;5.40;;
28483;SDS011;15704;48.834;8.736;2023-06-10T00:47:17;7.55;;;4.90;;
28483;SDS011;15704;48.834;8.736;2023-06-10T00:49:45;8.48;;;4.72;;
28483;SDS011;15704;48.834;8.736;2023-06-10T00:52:12;8.23;;;4.85;;
28483;SDS011;15704;48.834;8.736;2023-06-10T00:54:41;7.50;;;5.28;;
28483;SDS011;15704;48.834;8.736;2023-06-10T00:57:08;10.93;;;5.13;;
28483;SDS011;15704;48.834;8.736;2023-06-10T00:59:35;9.38;;;4.45;;
28483;SDS011;15704;48.834;8.736;2023-06-10T01:02:03;8.40;;;5.45;;
28483;SDS011;15704;48.834;8.736;2023-06-10T01:04:30;11.88;;;4.97;;
28483;SDS011;15704;48.834;8.736;2023-06-10T01:07:00;5.97;;;4.90;;
28483;SDS011;15704;48.834;8.736;2023-06-10T01:15:19;8.23;;;5.45;;
28483;SDS011;15704;48.834;8.736;2023-06-10T01:20:21;11.70;;;5.47;;
28483;SDS011;15704;48.834;8.736;2023-06-10T01:22:48;7.13;;;5.88;;
28483;SDS011;15704;48.834;8.736;2023-06-10T01:25:17;6.85;;;5.13;;
28483;SDS011;15704;48.834;8.736;2023-06-10T01:27:45;9.07;;;5.43;;
28483;SDS011;15704;48.834;8.736;2023-06-10T01:30:15;8.73;;;5.32;;
28483;SDS011;15704;48.834;8.736;2023-06-10T01:32:45;8.38;;;6.35;;
28483;SDS011;15704;48.834;8.736;2023-06-10T01:35:14;8.63;;;5.53;;
28483;SDS011;15704;48.834;8.736;2023-06-10T01:37:43;14.45;;;5.82;;
28483;SDS011;15704;48.834;8.736;2023-06-10T01:40:12;10.48;;;5.53;;
28483;SDS011;15704;48.834;8.736;2023-06-10T01:42:40;10.02;;;5.28;;
28483;SDS011;15704;48.834;8.736;2023-06-10T01:45:07;7.85;;;5.25;;
28483;SDS011;15704;48.834;8.736;2023-06-10T01:47:35;9.50;;;5.75;;
28483;SDS011;15704;48.834;8.736;2023-06-10T01:50:01;7.68;;;5.57;;
28483;SDS011;15704;48.834;8.736;2023-06-10T01:52:28;12.85;;;5.38;;
28483;SDS011;15704;48.834;8.736;2023-06-10T01:54:55;8.43;;;5.65;;
28483;SDS011;15704;48.834;8.736;2023-06-10T01:57:22;8.20;;;5.35;;
28483;SDS011;15704;48.834;8.736;2023-06-10T01:59:49;7.95;;;5.13;;
28483;SDS011;15704;48.834;8.736;2023-06-10T02:02:15;6.75;;;5.35;;
28483;SDS011;15704;48.834;8.736;2023-06-10T02:04:42;8.80;;;5.22;;
28483;SDS011;15704;48.834;8.736;2023-06-10T02:07:09;7.50;;;4.72;;
28483;SDS011;15704;48.834;8.736;2023-06-10T02:09:38;11.85;;;6.35;;
28483;SDS011;15704;48.834;8.736;2023-06-10T02:12:05;6.80;;;5.03;;
28483;SDS011;15704;48.834;8.736;2023-06-10T02:14:32;9.45;;;5.80;;
28483;SDS011;15704;48.834;8.736;2023-06-10T02:16:59;6.65;;;5.13;;
28483;SDS011;15704;48.834;8.736;2023-06-10T02:19:27;6.68;;;4.95;;
28483;SDS011;15704;48.834;8.736;2023-06-10T02:21:54;9.10;;;5.00;;
28483;SDS011;15704;48.834;8.736;2023-06-10T02:24:21;6.75;;;5.35;;
28483;SDS011;15704;48.834;8.736;2023-06-10T02:26:48;7.65;;;5.60;;
28483;SDS011;15704;48.834;8.736;2023-06-10T02:29:15;13.13;;;5.93;;
28483;SDS011;15704;48.834;8.736;2023-06-10T02:31:42;8.40;;;5.63;;
28483;SDS011;15704;48.834;8.736;2023-06-10T02:34:09;7.13;;;5.25;;
28483;SDS011;15704;48.834;8.736;2023-06-10T02:36:35;12.38;;;5.07;;
28483;SDS011;15704;48.834;8.736;2023-06-10T02:39:02;6.93;;;5.15;;
28483;SDS011;15704;48.834;8.736;2023-06-10T02:41:30;6.47;;;4.93;;
28483;SDS011;15704;48.834;8.736;2023-06-10T02:43:57;7.20;;;5.43;;
28483;SDS011;15704;48.834;8.736;2023-06-10T02:46:24;6.95;;;5.72;;
28483;SDS011;15704;48.834;8.736;2023-06-10T02:48:51;9.00;;;5.13;;
28483;SDS011;15704;48.834;8.736;2023-06-10T02:51:18;7.32;;;5.30;;
28483;SDS011;15704;48.834;8.736;2023-06-10T02:53:45;7.45;;;5.60;;
28483;SDS011;15704;48.834;8.736;2023-06-10T02:56:13;10.23;;;5.57;;
28483;SDS011;15704;48.834;8.736;2023-06-10T02:58:41;6.90;;;5.07;;
28483;SDS011;15704;48.834;8.736;2023-06-10T03:01:08;8.02;;;5.60;;
28483;SDS011;15704;48.834;8.736;2023-06-10T03:03:36;6.93;;;5.07;;
28483;SDS011;15704;48.834;8.736;2023-06-10T03:06:11;9.05;;;4.93;;
28483;SDS011;15704;48.834;8.736;2023-06-10T03:08:39;8.23;;;4.70;;
28483;SDS011;15704;48.834;8.736;2023-06-10T03:11:06;7.80;;;4.68;;
28483;SDS011;15704;48.834;8.736;2023-06-10T03:13:33;5.28;;;4.57;;
28483;SDS011;15704;48.834;8.736;2023-06-10T03:16:00;6.32;;;5.38;;
28483;SDS011;15704;48.834;8.736;2023-06-10T03:18:27;6.70;;;5.05;;
28483;SDS011;15704;48.834;8.736;2023-06-10T03:20:54;7.05;;;4.97;;
28483;SDS011;15704;48.834;8.736;2023-06-10T03:23:23;5.90;;;4.78;;
28483;SDS011;15704;48.834;8.736;2023-06-10T03:25:49;7.78;;;4.65;;
28483;SDS011;15704;48.834;8.736;2023-06-10T03:28:16;8.20;;;5.25;;
28483;SDS011;15704;48.834;8.736;2023-06-10T03:30:43;9.50;;;5.20;;
28483;SDS011;15704;48.834;8.736;2023-06-10T03:33:10;7.78;;;4.82;;
28483;SDS011;15704;48.834;8.736;2023-06-10T03:35:36;11.80;;;4.93;;
28483;SDS011;15704;48.834;8.736;2023-06-10T03:38:03;6.65;;;4.50;;
28483;SDS011;15704;48.834;8.736;2023-06-10T03:40:30;6.10;;;4.57;;
28483;SDS011;15704;48.834;8.736;2023-06-10T03:42:58;5.75;;;4.38;;
28483;SDS011;15704;48.834;8.736;2023-06-10T03:45:25;10.75;;;4.60;;
28483;SDS011;15704;48.834;8.736;2023-06-10T03:47:54;7.30;;;4.68;;
28483;SDS011;15704;48.834;8.736;2023-06-10T03:50:21;5.93;;;4.68;;
28483;SDS011;15704;48.834;8.736;2023-06-10T03:52:49;6.85;;;4.60;;
28483;SDS011;15704;48.834;8.736;2023-06-10T03:55:17;6.05;;;4.18;;
28483;SDS011;15704;48.834;8.736;2023-06-10T03:57:43;5.45;;;4.30;;
28483;SDS011;15704;48.834;8.736;2023-06-10T04:00:10;7.47;;;4.10;;
28483;SDS011;15704;48.834;8.736;2023-06-10T04:02:38;6.05;;;4.40;;
28483;SDS011;15704;48.834;8.736;2023-06-10T04:05:12;6.68;;;4.53;;
28483;SDS011;15704;48.834;8.736;2023-06-10T04:07:40;4.40;;;3.83;;
28483;SDS011;15704;48.834;8.736;2023-06-10T04:10:08;7.05;;;4.20;;
28483;SDS011;15704;48.834;8.736;2023-06-10T04:12:36;6.03;;;4.07;;
28483;SDS011;15704;48.834;8.736;2023-06-10T04:15:04;6.20;;;4.15;;
28483;SDS011;15704;48.834;8.736;2023-06-10T04:17:31;6.07;;;3.90;;
28483;SDS011;15704;48.834;8.736;2023-06-10T04:19:58;6.82;;;4.43;;
28483;SDS011;15704;48.834;8.736;2023-06-10T04:22:25;7.63;;;4.70;;
28483;SDS011;15704;48.834;8.736;2023-06-10T04:24:52;8.18;;;3.83;;
28483;SDS011;15704;48.834;8.736;2023-06-10T04:27:19;9.77;;;4.65;;
28483;SDS011;15704;48.834;8.736;2023-06-10T04:29:46;11.13;;;4.18;;
28483;SDS011;15704;48.834;8.736;2023-06-10T04:32:12;13.05;;;4.78;;
28483;SDS011;15704;48.834;8.736;2023-06-10T04:34:39;5.80;;;4.72;;
28483;SDS011;15704;48.834;8.736;2023-06-10T04:37:06;5.35;;;3.95;;
28483;SDS011;15704;48.834;8.736;2023-06-10T04:39:33;5.05;;;3.92;;
28483;SDS011;15704;48.834;8.736;2023-06-10T04:42:04;6.10;;;4.07;;
28483;SDS011;15704;48.834;8.736;2023-06-10T04:44:31;5.55;;;4.00;;
28483;SDS011;15704;48.834;8.736;2023-06-10T04:46:58;5.13;;;3.88;;
28483;SDS011;15704;48.834;8.736;2023-06-10T04:49:25;5.68;;;3.58;;
28483;SDS011;15704;48.834;8.736;2023-06-10T04:51:52;7.88;;;3.30;;
28483;SDS011;15704;48.834;8.736;2023-06-10T04:54:19;3.83;;;2.65;;
28483;SDS011;15704;48.834;8.736;2023-06-10T04:56:45;7.97;;;3.33;;
28483;SDS011;15704;48.834;8.736;2023-06-10T04:59:12;3.88;;;3.22;;
28483;SDS011;15704;48.834;8.736;2023-06-10T05:01:40;5.20;;;3.20;;
28483;SDS011;15704;48.834;8.736;2023-06-10T05:04:07;4.05;;;3.28;;
28483;SDS011;15704;48.834;8.736;2023-06-10T05:06:35;4.63;;;3.20;;
28483;SDS011;15704;48.834;8.736;2023-06-10T05:09:02;4.53;;;3.03;;
28483;SDS011;15704;48.834;8.736;2023-06-10T05:11:29;4.07;;;3.00;;
28483;SDS011;15704;48.834;8.736;2023-06-10T05:13:56;6.50;;;4.07;;
28483;SDS011;15704;48.834;8.736;2023-06-10T05:16:22;7.15;;;3.35;;
28483;SDS011;15704;48.834;8.736;2023-06-10T05:18:49;7.35;;;3.13;;
28483;SDS011;15704;48.834;8.736;2023-06-10T05:21:18;15.80;;;3.55;;
28483;SDS011;15704;48.834;8.736;2023-06-10T05:23:45;4.60;;;3.55;;
28483;SDS011;15704;48.834;8.736;2023-06-10T05:26:12;5.07;;;3.97;;
28483;SDS011;15704;48.834;8.736;2023-06-10T05:28:39;5.18;;;3.17;;
28483;SDS011;15704;48.834;8.736;2023-06-10T05:31:05;4.28;;;3.33;;
28483;SDS011;15704;48.834;8.736;2023-06-10T05:33:32;8.05;;;4.28;;
28483;SDS011;15704;48.834;8.736;2023-06-10T05:35:59;4.43;;;3.35;;
28483;SDS011;15704;48.834;8.736;2023-06-10T05:38:26;6.70;;;3.58;;
28483;SDS011;15704;48.834;8.736;2023-06-10T05:40:53;4.93;;;3.40;;
28483;SDS011;15704;48.834;8.736;2023-06-10T05:43:20;10.40;;;3.88;;
28483;SDS011;15704;48.834;8.736;2023-06-10T05:45:46;5.93;;;3.47;;
28483;SDS011;15704;48.834;8.736;2023-06-10T05:48:13;5.60;;;3.90;;
28483;SDS011;15704;48.834;8.736;2023-06-10T05:50:40;5.68;;;3.78;;
28483;SDS011;15704;48.834;8.736;2023-06-10T05:53:08;7.25;;;3.47;;
28483;SDS011;15704;48.834;8.736;2023-06-10T05:55:42;5.43;;;3.85;;
28483;SDS011;15704;48.834;8.736;2023-06-10T05:58:09;5.88;;;4.18;;
28483;SDS011;15704;48.834;8.736;2023-06-10T06:00:38;5.20;;;3.50;;
28483;SDS011;15704;48.834;8.736;2023-06-10T06:03:06;4.22;;;3.35;;
28483;SDS011;15704;48.834;8.736;2023-06-10T06:05:34;5.10;;;3.55;;
28483;SDS011;15704;48.834;8.736;2023-06-10T06:08:06;6.28;;;4.10;;
28483;SDS011;15704;48.834;8.736;2023-06-10T06:10:33;5.10;;;3.88;;
28483;SDS011;15704;48.834;8.736;2023-06-10T06:13:00;6.03;;;4.10;;
28483;SDS011;15704;48.834;8.736;2023-06-10T06:15:27;5.85;;;3.85;;
28483;SDS011;15704;48.834;8.736;2023-06-10T06:17:54;5.90;;;3.65;;
28483;SDS011;15704;48.834;8.736;2023-06-10T06:20:22;5.50;;;4.05;;
28483;SDS011;15704;48.834;8.736;2023-06-10T06:22:49;5.80;;;4.22;;
28483;SDS011;15704;48.834;8.736;2023-06-10T06:25:16;5.45;;;4.30;;
28483;SDS011;15704;48.834;8.736;2023-06-10T06:27:42;6.20;;;4.15;;
28483;SDS011;15704;48.834;8.736;2023-06-10T06:30:09;6.43;;;4.00;;
28483;SDS011;15704;48.834;8.736;2023-06-10T06:32:36;5.68;;;4.00;;
28483;SDS011;15704;48.834;8.736;2023-06-10T06:35:03;6.20;;;3.88;;
28483;SDS011;15704;48.834;8.736;2023-06-10T06:37:35;6.70;;;4.00;;
28483;SDS011;15704;48.834;8.736;2023-06-10T06:40:02;5.07;;;4.03;;
28483;SDS011;15704;48.834;8.736;2023-06-10T06:42:30;7.40;;;4.65;;
28483;SDS011;15704;48.834;8.736;2023-06-10T06:44:57;9.88;;;4.45;;
28483;SDS011;15704;48.834;8.736;2023-06-10T06:47:23;6.45;;;4.78;;
28483;SDS011;15704;48.834;8.736;2023-06-10T06:49:51;8.00;;;4.00;;
28483;SDS011;15704;48.834;8.736;2023-06-10T06:52:17;5.47;;;3.90;;
28483;SDS011;15704;48.834;8.736;2023-06-10T06:54:45;5.65;;;4.15;;
28483;SDS011;15704;48.834;8.736;2023-06-10T06:57:12;8.20;;;3.90;;
28483;SDS011;15704;48.834;8.736;2023-06-10T06:59:38;4.93;;;3.90;;
28483;SDS011;15704;48.834;8.736;2023-06-10T07:02:05;8.25;;;4.63;;
28483;SDS011;15704;48.834;8.736;2023-06-10T07:04:32;5.88;;;4.47;;
28483;SDS011;15704;48.834;8.736;2023-06-10T07:06:59;5.00;;;3.90;;
28483;SDS011;15704;48.834;8.736;2023-06-10T07:09:26;4.80;;;4.05;;
28483;SDS011;15704;48.834;8.736;2023-06-10T07:11:54;8.13;;;4.07;;
28483;SDS011;15704;48.834;8.736;2023-06-10T07:14:21;11.88;;;3.90;;
28483;SDS011;15704;48.834;8.736;2023-06-10T07:16:47;6.30;;;4.13;;
28483;SDS011;15704;48.834;8.736;2023-06-10T07:19:15;5.55;;;4.20;;
28483;SDS011;15704;48.834;8.736;2023-06-10T07:21:42;6.75;;;4.65;;
28483;SDS011;15704;48.834;8.736;2023-06-10T07:24:09;5.13;;;3.70;;
28483;SDS011;15704;48.834;8.736;2023-06-10T07:26:36;6.15;;;4.20;;
28483;SDS011;15704;48.834;8.736;2023-06-10T07:29:03;5.25;;;4.32;;
28483;SDS011;15704;48.834;8.736;2023-06-10T07:31:29;5.85;;;4.20;;
28483;SDS011;15704;48.834;8.736;2023-06-10T07:33:57;5.10;;;3.67;;
28483;SDS011;15704;48.834;8.736;2023-06-10T07:36:23;5.38;;;3.70;;
28483;SDS011;15704;48.834;8.736;2023-06-10T07:38:53;5.63;;;3.83;;
28483;SDS011;15704;48.834;8.736;2023-06-10T07:41:22;5.00;;;3.78;;
28483;SDS011;15704;48.834;8.736;2023-06-10T07:43:52;5.07;;;3.95;;
28483;SDS011;15704;48.834;8.736;2023-06-10T07:46:21;5.18;;;3.88;;
28483;SDS011;15704;48.834;8.736;2023-06-10T07:48:48;4.97;;;3.85;;
28483;SDS011;15704;48.834;8.736;2023-06-10T07:51:16;6.32;;;3.83;;
28483;SDS011;15704;48.834;8.736;2023-06-10T07:53:43;4.75;;;3.45;;
28483;SDS011;15704;48.834;8.736;2023-06-10T07:56:10;4.43;;;3.50;;
28483;SDS011;15704;48.834;8.736;2023-06-10T07:58:36;5.47;;;3.50;;
28483;SDS011;15704;48.834;8.736;2023-06-10T08:01:03;5.75;;;3.50;;
28483;SDS011;15704;48.834;8.736;2023-06-10T08:03:30;4.13;;;3.35;;
28483;SDS011;15704;48.834;8.736;2023-06-10T08:05:57;4.63;;;3.38;;
28483;SDS011;15704;48.834;8.736;2023-06-10T08:08:24;3.55;;;2.92;;
28483;SDS011;15704;48.834;8.736;2023-06-10T08:10:51;4.68;;;3.13;;
28483;SDS011;15704;48.834;8.736;2023-06-10T08:13:17;4.30;;;3.45;;
28483;SDS011;15704;48.834;8.736;2023-06-10T08:15:44;5.70;;;3.85;;
28483;SDS011;15704;48.834;8.736;2023-06-10T08:18:11;5.60;;;3.42;;
28483;SDS011;15704;48.834;8.736;2023-06-10T08:20:38;7.35;;;3.85;;
28483;SDS011;15704;48.834;8.736;2023-06-10T08:23:04;5.93;;;3.80;;
28483;SDS011;15704;48.834;8.736;2023-06-10T08:25:31;5.30;;;4.03;;
28483;SDS011;15704;48.834;8.736;2023-06-10T08:27:58;6.35;;;4.60;;
28483;SDS011;15704;48.834;8.736;2023-06-10T08:30:25;7.85;;;4.82;;
28483;SDS011;15704;48.834;8.736;2023-06-10T08:32:51;9.23;;;5.85;;
28483;SDS011;15704;48.834;8.736;2023-06-10T08:35:18;9.52;;;6.18;;
28483;SDS011;15704;48.834;8.736;2023-06-10T08:37:45;6.60;;;5.20;;
28483;SDS011;15704;48.834;8.736;2023-06-10T08:40:12;9.15;;;5.80;;
28483;SDS011;15704;48.834;8.736;2023-06-10T08:42:40;7.63;;;4.97;;
28483;SDS011;15704;48.834;8.736;2023-06-10T08:45:12;11.60;;;5.43;;
28483;SDS011;15704;48.834;8.736;2023-06-10T08:47:43;11.50;;;4.78;;
28483;SDS011;15704;48.834;8.736;2023-06-10T08:50:12;6.13;;;5.13;;
28483;SDS011;15704;48.834;8.736;2023-06-10T08:52:40;7.20;;;5.05;;
28483;SDS011;15704;48.834;8.736;2023-06-10T08:57:41;7.03;;;4.40;;
28483;SDS011;15704;48.834;8.736;2023-06-10T09:00:10;8.27;;;4.60;;
28483;SDS011;15704;48.834;8.736;2023-06-10T09:02:39;8.85;;;4.13;;
28483;SDS011;15704;48.834;8.736;2023-06-10T09:05:06;6.18;;;4.47;;
28483;SDS011;15704;48.834;8.736;2023-06-10T09:07:34;5.72;;;4.03;;
28483;SDS011;15704;48.834;8.736;2023-06-10T09:10:03;4.85;;;3.63;;
28483;SDS011;15704;48.834;8.736;2023-06-10T09:12:34;5.15;;;3.88;;
28483;SDS011;15704;48.834;8.736;2023-06-10T09:15:01;5.80;;;3.78;;
28483;SDS011;15704;48.834;8.736;2023-06-10T09:17:29;4.57;;;3.88;;
28483;SDS011;15704;48.834;8.736;2023-06-10T09:19:56;6.50;;;3.72;;
28483;SDS011;15704;48.834;8.736;2023-06-10T09:22:23;5.88;;;3.70;;
28483;SDS011;15704;48.834;8.736;2023-06-10T09:25:02;4.88;;;3.55;;
28483;SDS011;15704;48.834;8.736;2023-06-10T09:27:31;3.80;;;3.30;;
28483;SDS011;15704;48.834;8.736;2023-06-10T09:29:58;9.10;;;3.60;;
28483;SDS011;15704;48.834;8.736;2023-06-10T09:32:25;5.35;;;3.70;;
28483;SDS011;15704;48.834;8.736;2023-06-10T09:34:53;4.53;;;3.40;;
28483;SDS011;15704;48.834;8.736;2023-06-10T09:37:20;12.95;;;3.17;;
28483;SDS011;15704;48.834;8.736;2023-06-10T09:40:07;4.78;;;3.05;;
28483;SDS011;15704;48.834;8.736;2023-06-10T09:42:38;6.03;;;3.85;;
28483;SDS011;15704;48.834;8.736;2023-06-10T09:45:05;11.38;;;3.88;;
28483;SDS011;15704;48.834;8.736;2023-06-10T09:47:33;10.20;;;3.60;;
28483;SDS011;15704;48.834;8.736;2023-06-10T09:50:00;6.20;;;3.92;;
28483;SDS011;15704;48.834;8.736;2023-06-10T09:52:28;6.60;;;4.05;;
28483;SDS011;15704;48.834;8.736;2023-06-10T09:54:59;5.03;;;3.58;;
28483;SDS011;15704;48.834;8.736;2023-06-10T09:57:30;6.68;;;3.88;;
28483;SDS011;15704;48.834;8.736;2023-06-10T10:00:06;5.95;;;3.40;;
28483;SDS011;15704;48.834;8.736;2023-06-10T10:02:47;4.80;;;3.80;;
28483;SDS011;15704;48.834;8.736;2023-06-10T10:05:15;4.53;;;3.47;;
28483;SDS011;15704;48.834;8.736;2023-06-10T10:07:43;7.07;;;3.58;;
28483;SDS011;15704;48.834;8.736;2023-06-10T10:10:11;4.53;;;3.28;;
28483;SDS011;15704;48.834;8.736;2023-06-10T10:12:39;6.85;;;3.53;;
28483;SDS011;15704;48.834;8.736;2023-06-10T10:15:07;4.28;;;3.63;;
28483;SDS011;15704;48.834;8.736;2023-06-10T10:17:37;7.30;;;3.50;;
28483;SDS011;15704;48.834;8.736;2023-06-10T10:20:07;4.53;;;3.63;;
28483;SDS011;15704;48.834;8.736;2023-06-10T10:22:40;8.77;;;3.88;;
28483;SDS011;15704;48.834;8.736;2023-06-10T10:28:09;5.78;;;3.78;;
28483;SDS011;15704;48.834;8.736;2023-06-10T10:30:48;5.85;;;3.83;;
28483;SDS011;15704;48.834;8.736;2023-06-10T10:33:22;8.73;;;4.35;;
28483;SDS011;15704;48.834;8.736;2023-06-10T10:35:58;6.07;;;3.70;;
28483;SDS011;15704;48.834;8.736;2023-06-10T10:38:25;8.15;;;3.55;;
28483;SDS011;15704;48.834;8.736;2023-06-10T10:40:53;6.47;;;3.90;;
28483;SDS011;15704;48.834;8.736;2023-06-10T10:43:25;4.47;;;3.75;;
28483;SDS011;15704;48.834;8.736;2023-06-10T10:46:00;5.68;;;4.20;;
28483;SDS011;15704;48.834;8.736;2023-06-10T10:48:33;5.88;;;3.65;;
28483;SDS011;15704;48.834;8.736;2023-06-10T10:51:04;5.45;;;3.40;;
28483;SDS011;15704;48.834;8.736;2023-06-10T10:53:31;3.97;;;3.30;;
28483;SDS011;15704;48.834;8.736;2023-06-10T10:55:58;6.35;;;3.65;;
28483;SDS011;15704;48.834;8.736;2023-06-10T10:58:33;6.72;;;3.03;;
28483;SDS011;15704;48.834;8.736;2023-06-10T11:01:09;4.47;;;3.58;;
28483;SDS011;15704;48.834;8.736;2023-06-10T11:03:44;5.65;;;3.45;;
28483;SDS011;15704;48.834;8.736;2023-06-10T11:06:14;16.00;;;3.58;;
28483;SDS011;15704;48.834;8.736;2023-06-10T11:11:20;4.78;;;3.50;;
28483;SDS011;15704;48.834;8.736;2023-06-10T11:16:39;5.78;;;3.70;;
28483;SDS011;15704;48.834;8.736;2023-06-10T11:19:07;7.35;;;3.05;;
28483;SDS011;15704;48.834;8.736;2023-06-10T11:24:33;3.30;;;2.80;;
28483;SDS011;15704;48.834;8.736;2023-06-10T11:27:17;5.18;;;3.15;;
28483;SDS011;15704;48.834;8.736;2023-06-10T11:32:30;3.80;;;3.00;;
28483;SDS011;15704;48.834;8.736;2023-06-10T11:37:25;4.00;;;3.45;;
28483;SDS011;15704;48.834;8.736;2023-06-10T11:39:54;6.55;;;3.83;;
28483;SDS011;15704;48.834;8.736;2023-06-10T11:42:22;9.00;;;4.40;;
28483;SDS011;15704;48.834;8.736;2023-06-10T11:44:49;4.43;;;3.30;;
28483;SDS011;15704;48.834;8.736;2023-06-10T11:47:17;5.35;;;4.05;;
28483;SDS011;15704;48.834;8.736;2023-06-10T11:49:45;7.18;;;3.95;;
28483;SDS011;15704;48.834;8.736;2023-06-10T11:52:39;14.10;;;3.92;;
28483;SDS011;15704;48.834;8.736;2023-06-10T11:55:07;4.60;;;3.58;;
28483;SDS011;15704;48.834;8.736;2023-06-10T11:57:36;4.47;;;3.30;;
28483;SDS011;15704;48.834;8.736;2023-06-10T12:00:04;7.53;;;3.20;;
28483;SDS011;15704;48.834;8.736;2023-06-10T12:02:32;6.13;;;3.30;;
28483;SDS011;15704;48.834;8.736;2023-06-10T12:05:33;4.07;;;3.22;;
28483;SDS011;15704;48.834;8.736;2023-06-10T12:08:07;6.72;;;3.75;;
28483;SDS011;15704;48.834;8.736;2023-06-10T12:10:41;3.72;;;3.28;;
28483;SDS011;15704;48.834;8.736;2023-06-10T12:13:09;7.55;;;3.80;;
28483;SDS011;15704;48.834;8.736;2023-06-10T12:15:36;5.10;;;3.28;;
28483;SDS011;15704;48.834;8.736;2023-06-10T12:18:03;6.40;;;3.03;;
28483;SDS011;15704;48.834;8.736;2023-06-10T12:20:31;4.32;;;3.33;;
28483;SDS011;15704;48.834;8.736;2023-06-10T12:23:08;5.13;;;3.38;;
28483;SDS011;15704;48.834;8.736;2023-06-10T12:25:36;8.05;;;2.92;;
28483;SDS011;15704;48.834;8.736;2023-06-10T12:28:06;3.60;;;3.20;;
28483;SDS011;15704;48.834;8.736;2023-06-10T12:30:36;3.93;;;3.07;;
28483;SDS011;15704;48.834;8.736;2023-06-10T12:33:03;6.63;;;3.58;;
28483;SDS011;15704;48.834;8.736;2023-06-10T12:35:30;7.93;;;3.22;;
28483;SDS011;15704;48.834;8.736;2023-06-10T12:40:32;3.77;;;3.20;;
28483;SDS011;15704;48.834;8.736;2023-06-10T12:43:00;6.43;;;3.60;;
28483;SDS011;15704;48.834;8.736;2023-06-10T12:50:35;5.30;;;3.47;;
28483;SDS011;15704;48.834;8.736;2023-06-10T12:53:06;3.92;;;3.08;;
28483;SDS011;15704;48.834;8.736;2023-06-10T12:55:33;4.72;;;3.00;;
28483;SDS011;15704;48.834;8.736;2023-06-10T12:58:00;9.07;;;3.30;;
28483;SDS011;15704;48.834;8.736;2023-06-10T13:00:29;6.22;;;3.40;;
28483;SDS011;15704;48.834;8.736;2023-06-10T13:02:57;6.47;;;3.22;;
28483;SDS011;15704;48.834;8.736;2023-06-10T13:05:27;5.45;;;3.45;;
28483;SDS011;15704;48.834;8.736;2023-06-10T13:07:55;10.05;;;3.10;;
28483;SDS011;15704;48.834;8.736;2023-06-10T13:10:22;6.22;;;3.22;;
28483;SDS011;15704;48.834;8.736;2023-06-10T13:12:51;5.15;;;3.25;;
28483;SDS011;15704;48.834;8.736;2023-06-10T13:15:18;7.95;;;3.40;;
28483;SDS011;15704;48.834;8.736;2023-06-10T13:17:45;5.00;;;2.90;;
28483;SDS011;15704;48.834;8.736;2023-06-10T13:20:16;6.35;;;3.50;;
28483;SDS011;15704;48.834;8.736;2023-06-10T13:22:44;6.88;;;3.25;;
28483;SDS011;15704;48.834;8.736;2023-06-10T13:25:11;3.75;;;2.90;;
28483;SDS011;15704;48.834;8.736;2023-06-10T13:27:38;5.28;;;3.05;;
28483;SDS011;15704;48.834;8.736;2023-06-10T13:30:06;6.55;;;2.88;;
28483;SDS011;15704;48.834;8.736;2023-06-10T13:32:35;5.93;;;3.50;;
28483;SDS011;15704;48.834;8.736;2023-06-10T13:35:02;4.78;;;2.70;;
28483;SDS011;15704;48.834;8.736;2023-06-10T13:37:30;3.85;;;2.92;;
28483;SDS011;15704;48.834;8.736;2023-06-10T13:39:57;7.38;;;2.92;;
28483;SDS011;15704;48.834;8.736;2023-06-10T13:42:24;9.23;;;3.17;;
28483;SDS011;15704;48.834;8.736;2023-06-10T13:44:52;7.55;;;3.08;;
28483;SDS011;15704;48.834;8.736;2023-06-10T13:47:19;4.18;;;3.22;;
28483;SDS011;15704;48.834;8.736;2023-06-10T13:49:47;4.95;;;3.53;;
28483;SDS011;15704;48.834;8.736;2023-06-10T13:52:14;5.30;;;3.47;;
28483;SDS011;15704;48.834;8.736;2023-06-10T13:54:40;5.78;;;3.17;;
28483;SDS011;15704;48.834;8.736;2023-06-10T13:57:07;5.22;;;3.30;;
28483;SDS011;15704;48.834;8.736;2023-06-10T13:59:36;8.00;;;3.08;;
28483;SDS011;15704;48.834;8.736;2023-06-10T14:02:04;4.95;;;3.25;;
28483;SDS011;15704;48.834;8.736;2023-06-10T14:04:31;7.85;;;3.40;;
28483;SDS011;15704;48.834;8.736;2023-06-10T14:06:58;4.40;;;3.13;;
28483;SDS011;15704;48.834;8.736;2023-06-10T14:09:25;4.68;;;3.50;;
28483;SDS011;15704;48.834;8.736;2023-06-10T14:11:52;4.40;;;3.35;;
28483;SDS011;15704;48.834;8.736;2023-06-10T14:14:20;5.13;;;3.08;;
28483;SDS011;15704;48.834;8.736;2023-06-10T14:16:48;3.35;;;3.00;;
28483;SDS011;15704;48.834;8.736;2023-06-10T14:19:15;9.73;;;3.25;;
28483;SDS011;15704;48.834;8.736;2023-06-10T14:21:42;4.15;;;2.83;;
28483;SDS011;15704;48.834;8.736;2023-06-10T14:24:09;4.35;;;2.92;;
28483;SDS011;15704;48.834;8.736;2023-06-10T14:26:36;4.40;;;2.70;;
28483;SDS011;15704;48.834;8.736;2023-06-10T14:29:03;3.75;;;2.97;;
28483;SDS011;15704;48.834;8.736;2023-06-10T14:31:29;3.92;;;2.70;;
28483;SDS011;15704;48.834;8.736;2023-06-10T14:33:56;8.60;;;2.88;;
28483;SDS011;15704;48.834;8.736;2023-06-10T14:36:23;6.65;;;2.83;;
28483;SDS011;15704;48.834;8.736;2023-06-10T14:38:50;3.42;;;2.60;;
28483;SDS011;15704;48.834;8.736;2023-06-10T14:41:17;6.63;;;2.40;;
28483;SDS011;15704;48.834;8.736;2023-06-10T14:43:44;3.47;;;2.50;;
28483;SDS011;15704;48.834;8.736;2023-06-10T14:46:11;5.47;;;2.45;;
28483;SDS011;15704;48.834;8.736;2023-06-10T14:48:38;3.85;;;2.38;;
28483;SDS011;15704;48.834;8.736;2023-06-10T14:51:05;4.30;;;2.78;;
28483;SDS011;15704;48.834;8.736;2023-06-10T14:53:31;4.55;;;3.50;;
28483;SDS011;15704;48.834;8.736;2023-06-10T14:55:58;5.00;;;4.03;;
28483;SDS011;15704;48.834;8.736;2023-06-10T14:58:26;4.45;;;3.28;;
28483;SDS011;15704;48.834;8.736;2023-06-10T15:00:53;3.38;;;2.80;;
28483;SDS011;15704;48.834;8.736;2023-06-10T15:03:20;5.00;;;2.85;;
28483;SDS011;15704;48.834;8.736;2023-06-10T15:05:47;3.45;;;3.00;;
28483;SDS011;15704;48.834;8.736;2023-06-10T15:08:13;6.00;;;2.90;;
28483;SDS011;15704;48.834;8.736;2023-06-10T15:10:40;4.18;;;2.78;;
28483;SDS011;15704;48.834;8.736;2023-06-10T15:13:07;5.55;;;2.60;;
28483;SDS011;15704;48.834;8.736;2023-06-10T15:15:34;4.53;;;2.40;;
28483;SDS011;15704;48.834;8.736;2023-06-10T15:18:01;6.18;;;2.97;;
28483;SDS011;15704;48.834;8.736;2023-06-10T15:20:28;4.55;;;2.60;;
28483;SDS011;15704;48.834;8.736;2023-06-10T15:22:55;3.15;;;2.65;;
28483;SDS011;15704;48.834;8.736;2023-06-10T15:25:22;4.30;;;2.85;;